createdAt,value
2019-01-23T00:01:08.582Z,76.05
2019-01-23T00:03:44.457Z,76.28
2019-01-23T00:06:14.443Z,76.21
2019-01-23T00:08:44.249Z,75.91
2019-01-23T00:11:14.118Z,75.71
2019-01-23T00:13:43.939Z,75.59
2019-01-23T00:16:14.083Z,75.56
2019-01-23T00:18:44.091Z,75.49
2019-01-23T00:21:17.708Z,75.11
2019-01-23T00:23:49.177Z,75.33
2019-01-23T00:26:18.974Z,75.48
2019-01-23T00:28:48.796Z,75.65
2019-01-23T00:31:20.083Z,75.65
2019-01-23T00:33:50.012Z,75.78
2019-01-23T00:36:20.006Z,75.83
2019-01-23T00:38:49.887Z,76.04
2019-01-23T00:41:19.685Z,76.02
2019-01-23T00:43:50.188Z,76.62
2019-01-23T00:46:20.187Z,76.79
2019-01-23T00:48:49.986Z,76.79
2019-01-23T00:51:19.766Z,76.41
2019-01-23T00:53:49.741Z,75.78
2019-01-23T00:56:23.759Z,75.91
2019-01-23T00:58:55.191Z,76.30
2019-01-23T01:01:35.959Z,75.90
2019-01-23T01:04:13.527Z,75.52
2019-01-23T01:06:53.286Z,75.73
2019-01-23T01:09:23.009Z,75.63
2019-01-23T01:11:57.634Z,76.01
2019-01-23T01:14:43.267Z,75.40
2019-01-23T01:17:21.396Z,74.99
2019-01-23T01:20:02.403Z,74.66
2019-01-23T01:22:50.215Z,75.02
2019-01-23T01:25:33.933Z,75.21
2019-01-23T01:28:12.805Z,75.82
2019-01-23T01:30:44.357Z,76.24
2019-01-23T01:33:16.005Z,76.60
2019-01-23T01:35:45.906Z,76.58
2019-01-23T01:38:23.354Z,76.33
2019-01-23T01:41:09.975Z,76.17
2019-01-23T01:43:52.519Z,76.13
2019-01-23T01:46:25.525Z,76.27
2019-01-23T01:49:03.236Z,76.24
2019-01-23T01:51:54.286Z,75.98
2019-01-23T01:54:39.170Z,76.08
2019-01-23T01:57:18.577Z,75.92
2019-01-23T01:59:51.907Z,76.08
2019-01-23T02:02:35.144Z,76.20
2019-01-23T02:05:10.586Z,76.32
2019-01-23T02:07:44.768Z,76.75
2019-01-23T02:10:30.608Z,77.00
2019-01-23T02:13:11.265Z,76.61
2019-01-23T02:15:49.216Z,77.21
2019-01-23T02:18:30.883Z,77.08
2019-01-23T02:21:03.522Z,77.36
2019-01-23T02:23:39.757Z,77.69
2019-01-23T02:26:12.215Z,77.76
2019-01-23T02:29:12.067Z,77.82
2019-01-23T02:32:01.132Z,77.43
2019-01-23T02:34:54.686Z,77.74
2019-01-23T02:37:31.951Z,78.01
2019-01-23T02:40:04.303Z,78.32
2019-01-23T02:42:34.119Z,77.98
2019-01-23T02:45:10.103Z,78.19
2019-01-23T02:47:40.381Z,78.42
2019-01-23T02:50:39.961Z,78.61
2019-01-23T02:53:19.020Z,78.62
2019-01-23T02:55:51.053Z,78.83
2019-01-23T02:58:41.082Z,78.88
2019-01-23T03:01:10.882Z,78.87
2019-01-23T03:03:42.338Z,78.96
2019-01-23T03:06:12.314Z,78.85
2019-01-23T03:08:42.152Z,79.00
2019-01-23T03:11:13.023Z,79.20
2019-01-23T03:13:44.378Z,78.99
2019-01-23T03:16:23.649Z,78.75
2019-01-23T03:19:02.681Z,78.48
2019-01-23T03:21:33.276Z,78.59
2019-01-23T03:24:25.338Z,78.74
2019-01-23T03:26:56.788Z,78.61
2019-01-23T03:29:30.361Z,78.43
2019-01-23T03:32:00.186Z,78.19
2019-01-23T03:34:29.978Z,78.17
2019-01-23T03:37:01.475Z,78.00
2019-01-23T03:39:31.965Z,78.05
2019-01-23T03:42:02.475Z,78.02
2019-01-23T03:44:32.329Z,78.00
2019-01-23T03:47:02.140Z,78.17
2019-01-23T03:49:31.859Z,78.30
2019-01-23T03:52:01.715Z,78.34
2019-01-23T03:54:31.510Z,78.61
2019-01-23T03:57:01.462Z,78.73
2019-01-23T03:59:32.466Z,79.02
2019-01-23T04:02:06.624Z,79.04
2019-01-23T04:04:52.393Z,79.07
2019-01-23T04:07:26.782Z,78.99
2019-01-23T04:09:57.294Z,79.06
2019-01-23T04:12:27.667Z,79.01
2019-01-23T04:15:03.875Z,79.32
2019-01-23T04:17:36.738Z,79.36
2019-01-23T04:20:28.338Z,79.17
2019-01-23T04:23:04.053Z,78.91
2019-01-23T04:25:47.525Z,78.99
2019-01-23T04:28:25.440Z,78.88
2019-01-23T04:31:04.168Z,79.02
2019-01-23T04:33:39.552Z,79.36
2019-01-23T04:36:18.635Z,79.00
2019-01-23T04:38:50.980Z,79.26
2019-01-23T04:41:31.686Z,79.36
2019-01-23T04:44:15.554Z,79.42
2019-01-23T04:46:48.053Z,79.34
2019-01-23T04:49:46.581Z,79.01
2019-01-23T04:52:27.960Z,79.09
2019-01-23T04:58:01.392Z,77.20
2019-01-23T05:00:41.084Z,78.49
2019-01-23T05:03:19.285Z,79.55
2019-01-23T05:05:58.248Z,78.56
2019-01-23T05:08:56.173Z,79.45
2019-01-23T05:15:14.126Z,79.62
2019-01-23T05:30:22.013Z,79.21
2019-01-23T05:45:26.653Z,81.43
2019-01-23T05:48:10.083Z,89.92
2019-01-23T05:50:39.962Z,81.86
2019-01-23T05:53:10.331Z,76.61
2019-01-23T05:55:40.283Z,75.68
2019-01-23T05:58:10.265Z,75.05
2019-01-23T06:00:40.078Z,74.07
2019-01-23T06:03:09.864Z,73.07
2019-01-23T06:05:39.589Z,73.95
2019-01-23T06:08:09.442Z,74.77
2019-01-23T06:10:46.926Z,74.75
2019-01-23T06:13:24.218Z,75.81
2019-01-23T06:15:54.185Z,76.13
2019-01-23T06:18:24.160Z,76.20
2019-01-23T06:20:55.588Z,76.82
2019-01-23T06:23:27.197Z,77.08
2019-01-23T06:25:57.047Z,77.35
2019-01-23T06:28:26.884Z,77.60
2019-01-23T06:30:56.679Z,77.64
2019-01-23T06:33:26.569Z,77.56
2019-01-23T06:35:56.386Z,77.63
2019-01-23T06:38:26.182Z,77.75
2019-01-23T06:40:56.248Z,78.23
2019-01-23T06:43:26.061Z,78.62
2019-01-23T06:45:56.080Z,78.78
2019-01-23T06:48:27.871Z,78.78
2019-01-23T06:51:10.973Z,78.90
2019-01-23T06:53:40.844Z,78.93
2019-01-23T07:03:02.994Z,78.25
2019-01-23T07:05:36.919Z,78.60
2019-01-23T07:08:26.066Z,78.94
2019-01-23T07:11:09.031Z,78.68
2019-01-23T07:13:45.738Z,78.21
2019-01-23T07:16:30.112Z,78.51
2019-01-23T07:19:18.844Z,78.16
2019-01-23T07:22:04.959Z,78.30
2019-01-23T07:24:39.956Z,77.86
2019-01-23T07:27:36.220Z,77.57
2019-01-23T07:30:33.440Z,76.99
2019-01-23T07:33:35.405Z,76.68
2019-01-23T07:36:11.461Z,76.58
2019-01-23T07:41:57.068Z,76.34
2019-01-23T07:44:34.051Z,77.17
2019-01-23T07:47:19.597Z,77.49
2019-01-23T07:53:15.801Z,76.61
2019-01-23T07:58:46.252Z,74.81
2019-01-23T08:01:39.162Z,74.69
2019-01-23T08:04:16.890Z,75.05
2019-01-23T08:06:56.380Z,74.73
2019-01-23T08:09:33.991Z,74.71
2019-01-23T08:12:14.287Z,75.19
2019-01-23T08:14:59.811Z,74.82
2019-01-23T08:17:33.152Z,74.60
2019-01-23T08:20:09.722Z,74.49
2019-01-23T08:22:39.737Z,74.54
2019-01-23T08:25:09.384Z,74.34
2019-01-23T08:27:40.851Z,73.64
2019-01-23T08:30:19.817Z,73.30
2019-01-23T08:32:49.480Z,73.10
2019-01-23T08:35:20.158Z,72.79
2019-01-23T08:37:50.405Z,72.85
2019-01-23T08:40:20.243Z,72.46
2019-01-23T08:42:52.619Z,72.87
2019-01-23T08:45:22.367Z,73.05
2019-01-23T08:47:52.349Z,73.08
2019-01-23T08:50:40.720Z,73.08
2019-01-23T08:53:14.633Z,72.98
2019-01-23T08:55:44.504Z,72.84
2019-01-23T08:58:20.077Z,72.10
2019-01-23T09:00:51.542Z,72.07
2019-01-23T09:03:21.265Z,72.23
2019-01-23T09:05:51.632Z,71.93
2019-01-23T09:08:21.455Z,71.42
2019-01-23T09:10:51.259Z,71.09
2019-01-23T09:13:21.242Z,70.20
2019-01-23T09:15:51.081Z,70.26
2019-01-23T09:18:34.753Z,68.89
2019-01-23T09:21:04.597Z,68.19
2019-01-23T09:23:34.382Z,67.81
2019-01-23T09:26:04.193Z,67.78
2019-01-23T09:28:34.386Z,70.84
2019-01-23T09:31:09.671Z,69.64
2019-01-23T09:33:42.533Z,69.30
2019-01-23T09:36:28.809Z,69.40
2019-01-23T09:39:21.160Z,67.12
2019-01-23T09:42:29.017Z,67.12
2019-01-23T09:45:25.099Z,66.24
2019-01-23T09:48:15.623Z,65.54
2019-01-23T09:51:14.688Z,65.23
2019-01-23T09:53:49.529Z,66.05
2019-01-23T09:56:20.396Z,66.17
2019-01-23T09:58:50.105Z,66.37
2019-01-23T10:01:19.961Z,66.37
2019-01-23T10:03:53.234Z,66.72
2019-01-23T10:06:23.069Z,66.96
2019-01-23T10:08:52.905Z,66.96
2019-01-23T10:11:23.200Z,67.12
2019-01-23T10:13:53.485Z,67.01
2019-01-23T10:16:23.361Z,66.28
2019-01-23T10:18:56.129Z,66.69
2019-01-23T10:21:24.727Z,66.69
2019-01-23T10:23:54.932Z,64.69
2019-01-23T10:26:24.845Z,64.86
2019-01-23T10:28:54.849Z,64.86
2019-01-23T10:31:25.620Z,64.58
2019-01-23T10:33:55.611Z,63.42
2019-01-23T10:36:25.502Z,63.57
2019-01-23T10:38:55.201Z,63.57
2019-01-23T10:41:25.578Z,63.32
2019-01-23T10:43:55.296Z,63.66
2019-01-23T10:46:25.306Z,63.09
2019-01-23T10:48:55.948Z,63.09
2019-01-23T10:51:25.795Z,63.09
2019-01-23T10:53:55.620Z,62.96
2019-01-23T10:56:25.569Z,62.93
2019-01-23T10:58:55.453Z,62.52
2019-01-23T11:01:25.191Z,62.62
2019-01-23T11:03:55.231Z,62.62
2019-01-23T11:06:25.211Z,62.22
2019-01-23T11:08:55.128Z,62.19
2019-01-23T11:11:25.147Z,62.15
2019-01-23T11:13:54.942Z,61.91
2019-01-23T11:16:25.841Z,73.13
2019-01-23T11:18:55.508Z,71.48
2019-01-23T11:21:25.950Z,64.26
2019-01-23T11:23:55.772Z,61.07
2019-01-23T11:26:25.501Z,60.65
2019-01-23T11:28:55.347Z,61.30
2019-01-23T11:31:26.988Z,61.95
2019-01-23T11:33:56.792Z,61.95
2019-01-23T11:36:26.628Z,62.14
2019-01-23T11:38:56.412Z,61.73
2019-01-23T11:41:26.376Z,61.73
2019-01-23T11:43:56.344Z,61.46
2019-01-23T11:46:26.213Z,61.63
2019-01-23T11:48:56.016Z,60.86
2019-01-23T11:51:26.810Z,60.79
2019-01-23T11:53:58.591Z,60.80
2019-01-23T11:56:28.674Z,60.89
2019-01-23T11:58:58.485Z,60.97
2019-01-23T12:01:28.310Z,60.89
2019-01-23T12:03:58.244Z,61.46
2019-01-23T12:06:28.072Z,61.48
2019-01-23T12:08:57.902Z,61.86
2019-01-23T12:11:27.685Z,61.25
2019-01-23T12:13:57.529Z,61.13
2019-01-23T12:16:27.480Z,60.66
2019-01-23T12:18:57.176Z,60.66
2019-01-23T12:21:27.031Z,61.77
2019-01-23T12:23:58.413Z,68.15
2019-01-23T12:26:28.253Z,60.88
2019-01-23T12:29:00.764Z,59.95
2019-01-23T12:31:34.861Z,60.25
2019-01-23T12:34:02.467Z,60.25
2019-01-23T12:36:32.259Z,60.67
2019-01-23T12:39:02.100Z,60.37
2019-01-23T12:41:31.871Z,60.93
2019-01-23T12:44:01.682Z,61.27
2019-01-23T12:46:31.525Z,60.41
2019-01-23T12:49:02.934Z,60.41
2019-01-23T12:51:32.807Z,61.04
2019-01-23T12:54:02.611Z,61.09
2019-01-23T12:56:32.374Z,60.25
2019-01-23T12:59:02.308Z,60.05
2019-01-23T13:01:31.946Z,59.32
2019-01-23T13:04:01.764Z,60.10
2019-01-23T13:06:31.610Z,60.42
2019-01-23T13:09:01.520Z,60.28
2019-01-23T13:11:31.390Z,60.49
2019-01-23T13:14:01.167Z,60.02
2019-01-23T13:16:30.959Z,60.18
2019-01-23T13:19:00.798Z,60.18
2019-01-23T13:21:30.546Z,60.28
2019-01-23T13:24:00.341Z,60.17
2019-01-23T13:26:32.178Z,60.49
2019-01-23T13:29:01.957Z,60.89
2019-01-23T13:31:31.803Z,61.16
2019-01-23T13:34:01.639Z,61.65
2019-01-23T13:36:31.481Z,61.65
2019-01-23T13:39:01.202Z,62.13
2019-01-23T13:41:31.127Z,62.72
2019-01-23T13:44:02.409Z,62.72
2019-01-23T13:46:32.246Z,63.07
2019-01-23T13:49:02.045Z,62.92
2019-01-23T13:51:31.787Z,63.40
2019-01-23T13:54:02.445Z,63.40
2019-01-23T13:56:32.278Z,63.98
2019-01-23T13:59:03.710Z,64.07
2019-01-23T14:01:33.500Z,64.63
2019-01-23T14:04:03.436Z,64.89
2019-01-23T14:06:34.760Z,64.89
2019-01-23T14:09:06.459Z,65.49
2019-01-23T14:11:36.434Z,65.90
2019-01-23T14:14:06.292Z,65.90
2019-01-23T14:16:36.092Z,65.72
2019-01-23T14:19:05.908Z,66.41
2019-01-23T14:21:36.580Z,66.41
2019-01-23T14:24:06.606Z,66.57
2019-01-23T14:26:36.516Z,66.23
2019-01-23T14:29:06.911Z,66.23
2019-01-23T14:31:36.923Z,66.13
2019-01-23T14:34:07.790Z,66.32
2019-01-23T14:36:37.604Z,66.32
2019-01-23T14:39:08.001Z,66.68
2019-01-23T14:41:37.745Z,66.76
2019-01-23T14:44:07.627Z,66.89
2019-01-23T14:46:37.464Z,67.69
2019-01-23T14:49:07.217Z,67.97
2019-01-23T14:51:37.032Z,68.61
2019-01-23T14:54:06.849Z,68.95
2019-01-23T14:56:37.623Z,68.95
2019-01-23T14:59:07.420Z,69.30
2019-01-23T15:01:37.232Z,69.23
2019-01-23T15:04:07.971Z,69.28
2019-01-23T15:06:39.468Z,70.70
2019-01-23T15:09:09.446Z,70.24
2019-01-23T15:11:39.188Z,70.43
2019-01-23T15:14:09.191Z,70.95
2019-01-23T15:16:39.187Z,71.44
2019-01-23T15:19:10.413Z,72.80
2019-01-23T15:21:40.619Z,72.80
2019-01-23T15:24:10.614Z,72.96
2019-01-23T15:26:40.369Z,74.03
2019-01-23T15:29:10.858Z,74.49
2019-01-23T15:31:40.583Z,74.91
2019-01-23T15:34:10.321Z,75.25
2019-01-23T15:36:40.079Z,75.29
2019-01-23T15:39:10.407Z,75.55
2019-01-23T15:41:40.227Z,75.30
2019-01-23T15:44:10.105Z,75.47
2019-01-23T15:46:40.401Z,75.49
2019-01-23T15:49:10.207Z,75.87
2019-01-23T15:51:40.123Z,75.76
2019-01-23T15:54:10.444Z,75.73
2019-01-23T15:56:40.255Z,75.82
2019-01-23T15:59:11.129Z,75.86
2019-01-23T16:01:40.853Z,76.74
2019-01-23T16:04:10.855Z,78.09
2019-01-23T16:06:41.273Z,76.63
2019-01-23T16:09:11.036Z,76.40
2019-01-23T16:11:40.899Z,76.41
2019-01-23T16:14:10.708Z,76.40
2019-01-23T16:16:40.623Z,76.48
2019-01-23T16:19:11.262Z,76.67
2019-01-23T16:21:45.570Z,76.78
2019-01-23T16:24:12.558Z,77.01
2019-01-23T16:26:42.414Z,77.41
2019-01-23T16:29:13.727Z,77.32
2019-01-23T16:31:46.969Z,77.14
2019-01-23T16:34:16.788Z,77.43
2019-01-23T16:36:46.607Z,77.72
2019-01-23T16:39:16.494Z,77.64
2019-01-23T16:41:46.541Z,77.61
2019-01-23T16:44:16.266Z,77.65
2019-01-23T16:46:45.988Z,77.77
2019-01-23T16:49:16.041Z,77.87
2019-01-23T16:51:51.355Z,78.01
2019-01-23T16:54:20.163Z,78.01
2019-01-23T16:56:50.188Z,78.05
2019-01-23T16:59:20.012Z,77.99
2019-01-23T17:01:50.913Z,77.90
2019-01-23T17:04:21.496Z,77.97
2019-01-23T17:06:51.245Z,77.98
2019-01-23T17:09:21.035Z,78.17
2019-01-23T17:11:50.900Z,78.26
2019-01-23T17:14:21.625Z,78.13
2019-01-23T17:16:51.449Z,78.04
2019-01-23T17:19:21.309Z,77.91
2019-01-23T17:21:51.236Z,77.67
2019-01-23T17:24:21.028Z,77.75
2019-01-23T17:26:51.058Z,77.50
2019-01-23T17:29:21.419Z,77.62
2019-01-23T17:31:52.054Z,77.71
2019-01-23T17:34:22.128Z,77.55
2019-01-23T17:36:51.920Z,77.67
2019-01-23T17:39:21.753Z,77.65
2019-01-23T17:41:51.626Z,77.51
2019-01-23T17:44:21.467Z,77.61
2019-01-23T17:46:51.566Z,77.53
2019-01-23T17:49:26.526Z,77.63
2019-01-23T17:51:56.349Z,77.79
2019-01-23T17:54:26.198Z,77.75
2019-01-23T17:56:56.253Z,77.71
2019-01-23T17:59:26.220Z,79.71
2019-01-23T18:01:56.375Z,83.03
2019-01-23T18:04:26.535Z,78.64
2019-01-23T18:06:56.390Z,77.64
2019-01-23T18:09:26.237Z,77.37
2019-01-23T18:11:56.271Z,76.82
2019-01-23T18:14:26.193Z,77.02
2019-01-23T18:16:56.212Z,77.11
2019-01-23T18:19:26.015Z,76.85
2019-01-23T18:21:55.807Z,76.82
2019-01-23T18:24:26.830Z,76.66
2019-01-23T18:26:58.093Z,75.90
2019-01-23T18:29:29.543Z,76.80
2019-01-23T18:32:02.466Z,77.22
2019-01-23T18:35:01.008Z,77.52
2019-01-23T18:37:35.524Z,77.85
2019-01-23T18:40:31.318Z,77.72
2019-01-23T18:43:19.294Z,77.39
2019-01-23T18:46:00.576Z,77.16
2019-01-23T18:48:45.835Z,76.99
2019-01-23T18:51:19.640Z,76.94
2019-01-23T18:53:49.479Z,76.87
2019-01-23T18:56:19.278Z,76.83
2019-01-23T18:58:49.176Z,76.82
2019-01-23T19:01:19.060Z,76.78
2019-01-23T19:03:48.913Z,76.83
2019-01-23T19:06:21.247Z,77.09
2019-01-23T19:08:52.698Z,77.19
2019-01-23T19:11:23.872Z,77.20
2019-01-23T19:13:54.151Z,77.23
2019-01-23T19:16:24.288Z,77.30
2019-01-23T19:18:56.101Z,77.57
2019-01-23T19:21:25.913Z,77.44
2019-01-23T19:23:56.793Z,77.28
2019-01-23T19:26:26.629Z,76.88
2019-01-23T19:28:56.470Z,76.76
2019-01-23T19:31:26.351Z,76.37
2019-01-23T19:33:57.225Z,76.56
2019-01-23T19:36:26.963Z,76.49
2019-01-23T19:38:57.527Z,76.53
2019-01-23T19:41:27.631Z,76.25
2019-01-23T19:43:57.427Z,75.80
2019-01-23T19:46:27.343Z,75.63
2019-01-23T19:48:57.146Z,75.81
2019-01-23T19:51:29.030Z,75.89
2019-01-23T19:53:59.066Z,76.05
2019-01-23T19:56:28.925Z,75.97
2019-01-23T19:58:58.735Z,75.84
2019-01-23T20:01:28.547Z,75.93
2019-01-23T20:03:58.707Z,75.86
2019-01-23T20:06:28.845Z,75.97
2019-01-23T20:08:58.838Z,76.13
2019-01-23T20:11:28.695Z,76.39
2019-01-23T20:13:58.602Z,76.33
2019-01-23T20:16:29.193Z,76.47
2019-01-23T20:18:59.799Z,76.51
2019-01-23T20:21:30.000Z,76.59
2019-01-23T20:23:59.811Z,76.59
2019-01-23T20:26:29.732Z,76.78
2019-01-23T20:28:59.543Z,77.00
2019-01-23T20:31:29.406Z,77.17
2019-01-23T20:33:59.223Z,76.98
2019-01-23T20:36:29.185Z,77.02
2019-01-23T20:38:59.075Z,77.16
2019-01-23T20:41:28.903Z,77.18
2019-01-23T20:43:59.017Z,77.34
2019-01-23T20:46:29.083Z,77.27
2019-01-23T20:48:58.877Z,77.24
2019-01-23T20:51:28.734Z,77.40
2019-01-23T20:53:58.708Z,77.41
2019-01-23T20:56:30.494Z,77.56
2019-01-23T20:59:00.315Z,77.71
2019-01-23T21:01:30.274Z,77.65
2019-01-23T21:04:00.180Z,77.76
2019-01-23T21:06:35.740Z,77.86
2019-01-23T21:09:08.818Z,77.66
2019-01-23T21:11:38.917Z,77.48
2019-01-23T21:14:08.591Z,77.72
2019-01-23T21:16:39.482Z,77.62
2019-01-23T21:19:09.344Z,77.53
2019-01-23T21:21:39.166Z,77.46
2019-01-23T21:24:09.080Z,77.50
2019-01-23T21:26:38.928Z,77.60
2019-01-23T21:29:08.764Z,77.57
2019-01-23T21:31:40.227Z,77.72
2019-01-23T21:34:10.546Z,77.41
2019-01-23T21:36:41.082Z,77.18
2019-01-23T21:39:12.025Z,77.12
2019-01-23T21:41:41.830Z,77.11
2019-01-23T21:44:11.995Z,77.14
2019-01-23T21:46:41.997Z,77.26
2019-01-23T21:49:11.920Z,77.54
2019-01-23T21:51:42.626Z,77.54
2019-01-23T21:54:12.681Z,77.45
2019-01-23T21:56:42.563Z,77.44
2019-01-23T21:59:12.546Z,77.75
2019-01-23T22:01:43.943Z,77.75
2019-01-23T22:04:14.501Z,77.92
2019-01-23T22:06:44.359Z,77.83
2019-01-23T22:09:14.212Z,77.54
2019-01-23T22:11:44.008Z,77.74
2019-01-23T22:14:13.879Z,77.67
2019-01-23T22:16:43.682Z,77.51
2019-01-23T22:19:13.471Z,77.71
2019-01-23T22:21:43.286Z,77.51
2019-01-23T22:24:13.101Z,77.83
2019-01-23T22:26:42.940Z,77.96
2019-01-23T22:29:12.750Z,78.18
2019-01-23T22:31:43.386Z,78.32
2019-01-23T22:34:13.383Z,78.25
2019-01-23T22:36:43.349Z,78.26
2019-01-23T22:39:13.250Z,78.22
2019-01-23T22:41:43.036Z,78.35
2019-01-23T22:44:12.870Z,78.40
2019-01-23T22:46:42.795Z,78.35
2019-01-23T22:49:12.598Z,78.62
2019-01-23T22:51:42.383Z,78.60
2019-01-23T22:54:12.224Z,78.63
2019-01-23T22:56:41.931Z,78.70
2019-01-23T22:59:11.968Z,78.71
2019-01-23T23:01:41.778Z,78.79
2019-01-23T23:04:11.498Z,78.87
2019-01-23T23:06:42.439Z,78.87
2019-01-23T23:09:12.201Z,79.05
2019-01-23T23:11:41.863Z,79.28
2019-01-23T23:14:11.640Z,79.49
2019-01-23T23:16:41.501Z,79.58
2019-01-23T23:19:11.314Z,79.75
2019-01-23T23:21:41.033Z,79.63
2019-01-23T23:24:10.786Z,79.83
2019-01-23T23:26:40.563Z,79.85
2019-01-23T23:29:11.303Z,79.94
2019-01-23T23:31:41.100Z,79.92
2019-01-23T23:34:10.880Z,80.00
2019-01-23T23:36:40.658Z,79.85
2019-01-23T23:39:10.464Z,80.01
2019-01-23T23:41:40.256Z,80.11
2019-01-23T23:44:09.959Z,80.11
2019-01-23T23:46:39.728Z,80.18
2019-01-23T23:49:09.566Z,80.21
2019-01-23T23:51:39.375Z,80.16
2019-01-23T23:54:09.137Z,80.21
2019-01-23T23:56:39.004Z,80.29
2019-01-23T23:59:08.810Z,80.23
